sensor_id;sensor_type;location;lat;lon;timestamp;temperature;humidity
42907;DHT22;28552;51.146;6.576;2022-12-05T00:01:57;2.70;99.90
42907;DHT22;28552;51.146;6.576;2022-12-05T00:04:58;2.70;99.90
42907;DHT22;28552;51.146;6.576;2022-12-05T00:07:58;2.70;99.90
42907;DHT22;28552;51.146;6.576;2022-12-05T00:10:59;2.70;99.90
42907;DHT22;28552;51.146;6.576;2022-12-05T00:14:01;2.70;99.90
42907;DHT22;28552;51.146;6.576;2022-12-05T00:17:02;2.70;99.90
42907;DHT22;28552;51.146;6.576;2022-12-05T00:20:03;2.70;99.90
42907;DHT22;28552;51.146;6.576;2022-12-05T00:23:04;2.70;99.90
42907;DHT22;28552;51.146;6.576;2022-12-05T00:26:05;2.70;99.90
42907;DHT22;28552;51.146;6.576;2022-12-05T00:29:05;2.70;99.90
42907;DHT22;28552;51.146;6.576;2022-12-05T00:32:06;2.70;99.90
42907;DHT22;28552;51.146;6.576;2022-12-05T00:35:07;2.70;99.90
42907;DHT22;28552;51.146;6.576;2022-12-05T00:38:07;2.70;99.90
42907;DHT22;28552;51.146;6.576;2022-12-05T00:41:10;2.70;99.90
42907;DHT22;28552;51.146;6.576;2022-12-05T00:44:12;2.70;99.90
42907;DHT22;28552;51.146;6.576;2022-12-05T00:47:12;2.70;99.90
42907;DHT22;28552;51.146;6.576;2022-12-05T00:50:13;2.70;99.90
42907;DHT22;28552;51.146;6.576;2022-12-05T00:53:13;2.70;99.90
42907;DHT22;28552;51.146;6.576;2022-12-05T00:56:16;2.70;99.90
42907;DHT22;28552;51.146;6.576;2022-12-05T00:59:18;2.70;99.90
42907;DHT22;28552;51.146;6.576;2022-12-05T01:02:19;2.70;99.90
42907;DHT22;28552;51.146;6.576;2022-12-05T01:05:20;2.70;99.90
42907;DHT22;28552;51.146;6.576;2022-12-05T01:08:20;2.70;99.90
42907;DHT22;28552;51.146;6.576;2022-12-05T01:11:21;2.70;99.90
42907;DHT22;28552;51.146;6.576;2022-12-05T01:14:24;2.70;99.90
42907;DHT22;28552;51.146;6.576;2022-12-05T01:17:25;2.70;99.90
42907;DHT22;28552;51.146;6.576;2022-12-05T01:20:26;2.70;99.90
42907;DHT22;28552;51.146;6.576;2022-12-05T01:23:26;2.80;99.90
42907;DHT22;28552;51.146;6.576;2022-12-05T01:26:27;2.70;99.90
42907;DHT22;28552;51.146;6.576;2022-12-05T01:29:27;2.70;99.90
42907;DHT22;28552;51.146;6.576;2022-12-05T01:32:28;2.80;99.90
42907;DHT22;28552;51.146;6.576;2022-12-05T01:35:31;2.70;99.90
42907;DHT22;28552;51.146;6.576;2022-12-05T01:38:31;2.80;99.90
42907;DHT22;28552;51.146;6.576;2022-12-05T01:41:35;2.80;99.90
42907;DHT22;28552;51.146;6.576;2022-12-05T01:47:36;2.80;99.90
42907;DHT22;28552;51.146;6.576;2022-12-05T01:50:37;2.80;99.90
42907;DHT22;28552;51.146;6.576;2022-12-05T01:53:38;2.80;99.90
42907;DHT22;28552;51.146;6.576;2022-12-05T01:56:40;2.80;99.90
42907;DHT22;28552;51.146;6.576;2022-12-05T01:59:49;2.80;99.90
42907;DHT22;28552;51.146;6.576;2022-12-05T02:02:55;2.90;99.90
42907;DHT22;28552;51.146;6.576;2022-12-05T02:05:57;2.90;99.90
42907;DHT22;28552;51.146;6.576;2022-12-05T02:08:58;2.90;99.90
42907;DHT22;28552;51.146;6.576;2022-12-05T02:12:01;2.90;99.90
42907;DHT22;28552;51.146;6.576;2022-12-05T02:18:40;2.90;99.90
42907;DHT22;28552;51.146;6.576;2022-12-05T02:32:09;2.90;99.90
42907;DHT22;28552;51.146;6.576;2022-12-05T02:42:04;3.00;99.90
42907;DHT22;28552;51.146;6.576;2022-12-05T02:45:09;3.00;99.90
42907;DHT22;28552;51.146;6.576;2022-12-05T02:48:13;2.90;99.90
42907;DHT22;28552;51.146;6.576;2022-12-05T02:51:20;2.90;99.90
42907;DHT22;28552;51.146;6.576;2022-12-05T02:54:24;2.90;99.90
42907;DHT22;28552;51.146;6.576;2022-12-05T02:57:26;2.90;99.90
42907;DHT22;28552;51.146;6.576;2022-12-05T03:00:26;2.90;99.90
42907;DHT22;28552;51.146;6.576;2022-12-05T03:03:27;2.90;99.90
42907;DHT22;28552;51.146;6.576;2022-12-05T03:06:46;2.90;99.90
42907;DHT22;28552;51.146;6.576;2022-12-05T03:09:50;2.90;99.90
42907;DHT22;28552;51.146;6.576;2022-12-05T03:12:56;2.90;99.90
42907;DHT22;28552;51.146;6.576;2022-12-05T03:16:03;2.90;99.90
42907;DHT22;28552;51.146;6.576;2022-12-05T03:19:11;2.80;99.90
42907;DHT22;28552;51.146;6.576;2022-12-05T03:22:21;2.80;99.90
42907;DHT22;28552;51.146;6.576;2022-12-05T03:25:29;2.80;99.90
42907;DHT22;28552;51.146;6.576;2022-12-05T03:28:42;2.80;99.90
42907;DHT22;28552;51.146;6.576;2022-12-05T03:31:52;2.80;99.90
42907;DHT22;28552;51.146;6.576;2022-12-05T03:38:24;2.70;99.90
42907;DHT22;28552;51.146;6.576;2022-12-05T03:41:42;2.70;99.90
42907;DHT22;28552;51.146;6.576;2022-12-05T03:44:57;2.70;99.90
42907;DHT22;28552;51.146;6.576;2022-12-05T03:48:09;2.70;99.90
42907;DHT22;28552;51.146;6.576;2022-12-05T03:51:15;2.70;99.90
42907;DHT22;28552;51.146;6.576;2022-12-05T03:54:21;2.70;99.90
42907;DHT22;28552;51.146;6.576;2022-12-05T04:00:41;2.70;99.90
42907;DHT22;28552;51.146;6.576;2022-12-05T04:03:47;2.70;99.90
42907;DHT22;28552;51.146;6.576;2022-12-05T04:06:52;2.70;99.90
42907;DHT22;28552;51.146;6.576;2022-12-05T04:09:58;2.70;99.90
42907;DHT22;28552;51.146;6.576;2022-12-05T04:13:02;2.70;99.90
42907;DHT22;28552;51.146;6.576;2022-12-05T04:16:22;2.70;99.90
42907;DHT22;28552;51.146;6.576;2022-12-05T04:22:57;2.70;99.90
42907;DHT22;28552;51.146;6.576;2022-12-05T04:26:13;2.70;99.90
42907;DHT22;28552;51.146;6.576;2022-12-05T04:29:25;2.70;99.90
42907;DHT22;28552;51.146;6.576;2022-12-05T04:32:36;2.60;99.90
42907;DHT22;28552;51.146;6.576;2022-12-05T04:35:42;2.60;99.90
42907;DHT22;28552;51.146;6.576;2022-12-05T04:38:52;2.50;99.90
42907;DHT22;28552;51.146;6.576;2022-12-05T04:41:57;2.40;99.90
42907;DHT22;28552;51.146;6.576;2022-12-05T04:45:04;2.40;99.90
42907;DHT22;28552;51.146;6.576;2022-12-05T04:48:11;2.40;99.90
42907;DHT22;28552;51.146;6.576;2022-12-05T04:51:16;2.40;99.90
42907;DHT22;28552;51.146;6.576;2022-12-05T04:54:23;2.30;99.90
42907;DHT22;28552;51.146;6.576;2022-12-05T04:57:30;2.30;99.90
42907;DHT22;28552;51.146;6.576;2022-12-05T05:00:46;2.20;99.90
42907;DHT22;28552;51.146;6.576;2022-12-05T05:03:55;2.20;99.90
42907;DHT22;28552;51.146;6.576;2022-12-05T05:06:57;2.20;99.90
42907;DHT22;28552;51.146;6.576;2022-12-05T05:09:57;2.20;99.90
42907;DHT22;28552;51.146;6.576;2022-12-05T05:12:58;2.20;99.90
42907;DHT22;28552;51.146;6.576;2022-12-05T05:15:58;2.10;99.90
42907;DHT22;28552;51.146;6.576;2022-12-05T05:18:59;2.10;99.90
42907;DHT22;28552;51.146;6.576;2022-12-05T05:22:00;2.10;99.90
42907;DHT22;28552;51.146;6.576;2022-12-05T05:25:00;2.10;99.90
42907;DHT22;28552;51.146;6.576;2022-12-05T05:28:01;2.10;99.90
42907;DHT22;28552;51.146;6.576;2022-12-05T05:31:03;2.00;99.90
42907;DHT22;28552;51.146;6.576;2022-12-05T05:34:04;1.90;99.90
42907;DHT22;28552;51.146;6.576;2022-12-05T05:37:05;1.90;99.90
42907;DHT22;28552;51.146;6.576;2022-12-05T05:40:07;1.90;99.90
42907;DHT22;28552;51.146;6.576;2022-12-05T05:43:08;1.80;99.90
42907;DHT22;28552;51.146;6.576;2022-12-05T05:46:09;1.80;99.90
42907;DHT22;28552;51.146;6.576;2022-12-05T05:49:10;1.70;99.90
42907;DHT22;28552;51.146;6.576;2022-12-05T05:52:10;1.60;99.90
42907;DHT22;28552;51.146;6.576;2022-12-05T05:55:11;1.60;99.90
42907;DHT22;28552;51.146;6.576;2022-12-05T05:58:11;1.60;99.90
42907;DHT22;28552;51.146;6.576;2022-12-05T06:01:15;1.60;99.90
42907;DHT22;28552;51.146;6.576;2022-12-05T06:04:16;1.50;99.90
42907;DHT22;28552;51.146;6.576;2022-12-05T06:07:16;1.50;99.90
42907;DHT22;28552;51.146;6.576;2022-12-05T06:10:17;1.50;99.90
42907;DHT22;28552;51.146;6.576;2022-12-05T06:13:17;1.50;99.90
42907;DHT22;28552;51.146;6.576;2022-12-05T06:16:18;1.50;99.90
42907;DHT22;28552;51.146;6.576;2022-12-05T06:19:20;1.50;99.90
42907;DHT22;28552;51.146;6.576;2022-12-05T06:22:20;1.50;99.90
42907;DHT22;28552;51.146;6.576;2022-12-05T06:25:21;1.50;99.90
42907;DHT22;28552;51.146;6.576;2022-12-05T06:28:24;1.50;99.90
42907;DHT22;28552;51.146;6.576;2022-12-05T06:31:25;1.60;99.90
42907;DHT22;28552;51.146;6.576;2022-12-05T06:34:30;1.50;99.90
42907;DHT22;28552;51.146;6.576;2022-12-05T06:37:35;1.50;99.90
42907;DHT22;28552;51.146;6.576;2022-12-05T06:40:40;1.40;99.90
42907;DHT22;28552;51.146;6.576;2022-12-05T06:43:41;1.30;99.90
42907;DHT22;28552;51.146;6.576;2022-12-05T06:46:41;1.30;99.90
42907;DHT22;28552;51.146;6.576;2022-12-05T06:49:42;1.30;99.90
42907;DHT22;28552;51.146;6.576;2022-12-05T06:52:42;1.20;99.90
42907;DHT22;28552;51.146;6.576;2022-12-05T06:55:43;1.10;99.90
42907;DHT22;28552;51.146;6.576;2022-12-05T06:58:46;1.10;99.90
42907;DHT22;28552;51.146;6.576;2022-12-05T07:01:47;1.10;99.90
42907;DHT22;28552;51.146;6.576;2022-12-05T07:04:48;1.10;99.90
42907;DHT22;28552;51.146;6.576;2022-12-05T07:07:48;1.10;99.90
42907;DHT22;28552;51.146;6.576;2022-12-05T07:10:50;1.10;99.90
42907;DHT22;28552;51.146;6.576;2022-12-05T07:13:51;1.10;99.90
42907;DHT22;28552;51.146;6.576;2022-12-05T07:16:52;1.00;99.90
42907;DHT22;28552;51.146;6.576;2022-12-05T07:19:52;1.00;99.90
42907;DHT22;28552;51.146;6.576;2022-12-05T07:22:53;0.90;99.90
42907;DHT22;28552;51.146;6.576;2022-12-05T07:25:53;0.80;99.90
42907;DHT22;28552;51.146;6.576;2022-12-05T07:28:55;0.80;99.90
42907;DHT22;28552;51.146;6.576;2022-12-05T07:31:56;0.80;99.90
42907;DHT22;28552;51.146;6.576;2022-12-05T07:34:56;0.70;99.90
42907;DHT22;28552;51.146;6.576;2022-12-05T07:37:57;0.70;99.90
42907;DHT22;28552;51.146;6.576;2022-12-05T07:40:58;0.70;99.90
42907;DHT22;28552;51.146;6.576;2022-12-05T07:43:59;0.70;99.90
42907;DHT22;28552;51.146;6.576;2022-12-05T07:47:00;0.70;99.90
42907;DHT22;28552;51.146;6.576;2022-12-05T07:50:00;0.70;99.90
42907;DHT22;28552;51.146;6.576;2022-12-05T07:53:01;0.70;99.90
42907;DHT22;28552;51.146;6.576;2022-12-05T07:56:04;0.70;99.90
42907;DHT22;28552;51.146;6.576;2022-12-05T07:59:06;0.70;99.90
42907;DHT22;28552;51.146;6.576;2022-12-05T08:02:08;0.70;99.90
42907;DHT22;28552;51.146;6.576;2022-12-05T08:05:08;0.70;99.90
42907;DHT22;28552;51.146;6.576;2022-12-05T08:08:09;0.70;99.90
42907;DHT22;28552;51.146;6.576;2022-12-05T08:11:12;0.70;99.90
42907;DHT22;28552;51.146;6.576;2022-12-05T08:14:13;0.70;99.90
42907;DHT22;28552;51.146;6.576;2022-12-05T08:17:13;0.70;99.90
42907;DHT22;28552;51.146;6.576;2022-12-05T08:20:14;0.70;99.90
42907;DHT22;28552;51.146;6.576;2022-12-05T08:23:14;0.70;99.90
42907;DHT22;28552;51.146;6.576;2022-12-05T08:26:18;0.70;99.90
42907;DHT22;28552;51.146;6.576;2022-12-05T08:29:21;0.70;99.90
42907;DHT22;28552;51.146;6.576;2022-12-05T08:32:21;0.70;99.90
42907;DHT22;28552;51.146;6.576;2022-12-05T08:35:22;0.80;99.90
42907;DHT22;28552;51.146;6.576;2022-12-05T08:38:22;0.70;99.90
42907;DHT22;28552;51.146;6.576;2022-12-05T08:41:23;0.80;99.90
42907;DHT22;28552;51.146;6.576;2022-12-05T08:44:27;0.80;99.90
42907;DHT22;28552;51.146;6.576;2022-12-05T08:47:28;0.80;99.90
42907;DHT22;28552;51.146;6.576;2022-12-05T08:50:28;0.80;99.90
42907;DHT22;28552;51.146;6.576;2022-12-05T08:53:29;0.80;99.90
42907;DHT22;28552;51.146;6.576;2022-12-05T08:56:29;0.80;99.90
42907;DHT22;28552;51.146;6.576;2022-12-05T08:59:32;0.80;99.90
42907;DHT22;28552;51.146;6.576;2022-12-05T09:02:32;0.80;99.90
42907;DHT22;28552;51.146;6.576;2022-12-05T09:05:33;0.90;99.90
42907;DHT22;28552;51.146;6.576;2022-12-05T09:08:33;0.90;99.90
42907;DHT22;28552;51.146;6.576;2022-12-05T09:11:37;0.90;99.90
42907;DHT22;28552;51.146;6.576;2022-12-05T09:14:40;1.00;99.90
42907;DHT22;28552;51.146;6.576;2022-12-05T09:17:40;1.00;99.90
42907;DHT22;28552;51.146;6.576;2022-12-05T09:20:41;1.00;99.90
42907;DHT22;28552;51.146;6.576;2022-12-05T09:23:41;1.10;99.90
42907;DHT22;28552;51.146;6.576;2022-12-05T09:26:43;1.10;99.90
42907;DHT22;28552;51.146;6.576;2022-12-05T09:29:43;1.10;99.90
42907;DHT22;28552;51.146;6.576;2022-12-05T09:32:44;1.20;99.90
42907;DHT22;28552;51.146;6.576;2022-12-05T09:35:44;1.20;99.90
42907;DHT22;28552;51.146;6.576;2022-12-05T09:38:46;1.20;99.90
42907;DHT22;28552;51.146;6.576;2022-12-05T09:41:54;1.30;99.90
42907;DHT22;28552;51.146;6.576;2022-12-05T09:45:08;1.30;99.90
42907;DHT22;28552;51.146;6.576;2022-12-05T09:51:12;1.40;99.90
42907;DHT22;28552;51.146;6.576;2022-12-05T09:54:13;1.40;99.90
42907;DHT22;28552;51.146;6.576;2022-12-05T09:57:14;1.40;99.90
42907;DHT22;28552;51.146;6.576;2022-12-05T10:00:16;1.30;99.90
42907;DHT22;28552;51.146;6.576;2022-12-05T10:03:36;1.30;99.90
42907;DHT22;28552;51.146;6.576;2022-12-05T10:06:44;1.40;99.90
42907;DHT22;28552;51.146;6.576;2022-12-05T10:10:06;1.40;99.90
42907;DHT22;28552;51.146;6.576;2022-12-05T10:13:34;1.50;99.90
42907;DHT22;28552;51.146;6.576;2022-12-05T10:16:45;1.60;99.90
42907;DHT22;28552;51.146;6.576;2022-12-05T10:19:48;1.70;99.90
42907;DHT22;28552;51.146;6.576;2022-12-05T10:22:55;1.70;99.90
42907;DHT22;28552;51.146;6.576;2022-12-05T10:26:01;1.80;99.90
42907;DHT22;28552;51.146;6.576;2022-12-05T10:29:18;1.90;99.90
42907;DHT22;28552;51.146;6.576;2022-12-05T10:32:27;1.90;99.90
42907;DHT22;28552;51.146;6.576;2022-12-05T10:35:35;2.10;99.90
42907;DHT22;28552;51.146;6.576;2022-12-05T10:38:36;2.20;99.90
42907;DHT22;28552;51.146;6.576;2022-12-05T10:41:37;2.30;99.90
42907;DHT22;28552;51.146;6.576;2022-12-05T10:44:37;2.30;99.90
42907;DHT22;28552;51.146;6.576;2022-12-05T10:47:38;2.30;99.90
42907;DHT22;28552;51.146;6.576;2022-12-05T10:50:39;2.30;99.90
42907;DHT22;28552;51.146;6.576;2022-12-05T10:56:46;2.30;99.90
42907;DHT22;28552;51.146;6.576;2022-12-05T10:59:47;2.30;99.90
42907;DHT22;28552;51.146;6.576;2022-12-05T11:02:49;2.30;99.90
42907;DHT22;28552;51.146;6.576;2022-12-05T11:05:51;2.30;99.90
42907;DHT22;28552;51.146;6.576;2022-12-05T11:08:53;2.30;99.90
42907;DHT22;28552;51.146;6.576;2022-12-05T11:12:14;2.30;99.90
42907;DHT22;28552;51.146;6.576;2022-12-05T11:21:41;2.30;99.90
42907;DHT22;28552;51.146;6.576;2022-12-05T11:24:41;2.30;99.90
42907;DHT22;28552;51.146;6.576;2022-12-05T11:27:42;2.20;99.90
42907;DHT22;28552;51.146;6.576;2022-12-05T11:30:59;2.30;99.90
42907;DHT22;28552;51.146;6.576;2022-12-05T11:34:09;2.20;99.90
42907;DHT22;28552;51.146;6.576;2022-12-05T11:37:15;2.20;99.90
42907;DHT22;28552;51.146;6.576;2022-12-05T11:53:43;2.30;99.90
42907;DHT22;28552;51.146;6.576;2022-12-05T11:56:52;2.40;99.90
42907;DHT22;28552;51.146;6.576;2022-12-05T12:06:49;2.30;99.90
42907;DHT22;28552;51.146;6.576;2022-12-05T12:13:19;2.30;99.90
42907;DHT22;28552;51.146;6.576;2022-12-05T12:16:34;2.30;99.90
42907;DHT22;28552;51.146;6.576;2022-12-05T12:20:02;2.30;99.90
42907;DHT22;28552;51.146;6.576;2022-12-05T12:23:40;2.30;99.90
42907;DHT22;28552;51.146;6.576;2022-12-05T12:26:39;2.30;99.90
42907;DHT22;28552;51.146;6.576;2022-12-05T12:30:02;2.30;99.90
42907;DHT22;28552;51.146;6.576;2022-12-05T12:33:28;2.30;99.90
42907;DHT22;28552;51.146;6.576;2022-12-05T12:36:37;2.30;99.90
42907;DHT22;28552;51.146;6.576;2022-12-05T12:39:50;2.20;99.90
42907;DHT22;28552;51.146;6.576;2022-12-05T12:49:27;2.10;99.90
42907;DHT22;28552;51.146;6.576;2022-12-05T12:56:20;2.10;99.90
42907;DHT22;28552;51.146;6.576;2022-12-05T12:59:27;2.10;99.90
42907;DHT22;28552;51.146;6.576;2022-12-05T13:02:48;2.00;99.90
42907;DHT22;28552;51.146;6.576;2022-12-05T13:05:59;1.90;99.90
42907;DHT22;28552;51.146;6.576;2022-12-05T13:09:07;1.90;99.90
42907;DHT22;28552;51.146;6.576;2022-12-05T13:12:14;1.80;99.90
42907;DHT22;28552;51.146;6.576;2022-12-05T13:15:21;1.70;99.90
42907;DHT22;28552;51.146;6.576;2022-12-05T13:18:24;1.60;99.90
42907;DHT22;28552;51.146;6.576;2022-12-05T13:21:26;1.50;99.90
42907;DHT22;28552;51.146;6.576;2022-12-05T13:24:27;1.40;99.90
42907;DHT22;28552;51.146;6.576;2022-12-05T13:27:28;1.30;99.90
42907;DHT22;28552;51.146;6.576;2022-12-05T13:30:29;1.30;99.90
42907;DHT22;28552;51.146;6.576;2022-12-05T13:33:35;1.20;99.90
42907;DHT22;28552;51.146;6.576;2022-12-05T13:36:39;1.20;99.90
42907;DHT22;28552;51.146;6.576;2022-12-05T13:39:56;1.20;99.90
42907;DHT22;28552;51.146;6.576;2022-12-05T13:43:16;1.10;99.90
42907;DHT22;28552;51.146;6.576;2022-12-05T13:46:30;1.00;99.90
42907;DHT22;28552;51.146;6.576;2022-12-05T13:49:42;1.00;99.90
42907;DHT22;28552;51.146;6.576;2022-12-05T13:52:54;1.00;99.90
42907;DHT22;28552;51.146;6.576;2022-12-05T13:56:04;1.00;99.90
42907;DHT22;28552;51.146;6.576;2022-12-05T13:59:07;0.90;99.90
42907;DHT22;28552;51.146;6.576;2022-12-05T14:05:47;0.90;99.90
42907;DHT22;28552;51.146;6.576;2022-12-05T14:08:51;0.90;99.90
42907;DHT22;28552;51.146;6.576;2022-12-05T14:15:36;0.80;99.90
42907;DHT22;28552;51.146;6.576;2022-12-05T14:18:46;0.80;99.90
42907;DHT22;28552;51.146;6.576;2022-12-05T14:21:57;0.80;99.90
42907;DHT22;28552;51.146;6.576;2022-12-05T14:25:10;0.80;99.90
42907;DHT22;28552;51.146;6.576;2022-12-05T14:32:35;0.80;99.90
42907;DHT22;28552;51.146;6.576;2022-12-05T14:35:27;0.80;99.90
42907;DHT22;28552;51.146;6.576;2022-12-05T14:38:30;0.80;99.90
42907;DHT22;28552;51.146;6.576;2022-12-05T14:41:33;0.70;99.90
42907;DHT22;28552;51.146;6.576;2022-12-05T14:44:35;0.70;99.90
42907;DHT22;28552;51.146;6.576;2022-12-05T14:47:36;0.70;99.90
42907;DHT22;28552;51.146;6.576;2022-12-05T14:50:42;0.70;99.90
42907;DHT22;28552;51.146;6.576;2022-12-05T14:53:44;0.70;99.90
42907;DHT22;28552;51.146;6.576;2022-12-05T14:56:50;0.70;99.90
42907;DHT22;28552;51.146;6.576;2022-12-05T14:59:55;0.70;99.90
42907;DHT22;28552;51.146;6.576;2022-12-05T15:02:57;0.70;99.90
42907;DHT22;28552;51.146;6.576;2022-12-05T15:06:01;0.60;99.90
42907;DHT22;28552;51.146;6.576;2022-12-05T15:09:06;0.60;99.90
42907;DHT22;28552;51.146;6.576;2022-12-05T15:12:14;0.60;99.90
42907;DHT22;28552;51.146;6.576;2022-12-05T15:15:20;0.60;99.90
42907;DHT22;28552;51.146;6.576;2022-12-05T15:18:26;0.60;99.90
42907;DHT22;28552;51.146;6.576;2022-12-05T15:21:45;0.60;99.90
42907;DHT22;28552;51.146;6.576;2022-12-05T15:24:46;0.60;99.90
42907;DHT22;28552;51.146;6.576;2022-12-05T15:28:03;0.60;99.90
42907;DHT22;28552;51.146;6.576;2022-12-05T15:31:05;0.60;99.90
42907;DHT22;28552;51.146;6.576;2022-12-05T15:34:28;0.60;99.90
42907;DHT22;28552;51.146;6.576;2022-12-05T15:37:46;0.60;99.90
42907;DHT22;28552;51.146;6.576;2022-12-05T15:40:48;0.60;99.90
42907;DHT22;28552;51.146;6.576;2022-12-05T15:43:57;0.60;99.90
42907;DHT22;28552;51.146;6.576;2022-12-05T15:46:57;0.50;99.90
42907;DHT22;28552;51.146;6.576;2022-12-05T15:49:58;0.50;99.90
42907;DHT22;28552;51.146;6.576;2022-12-05T15:56:12;0.50;99.90
42907;DHT22;28552;51.146;6.576;2022-12-05T15:59:19;0.60;99.90
42907;DHT22;28552;51.146;6.576;2022-12-05T16:02:23;0.50;99.90
42907;DHT22;28552;51.146;6.576;2022-12-05T16:05:30;0.50;99.90
42907;DHT22;28552;51.146;6.576;2022-12-05T16:08:32;0.50;99.90
42907;DHT22;28552;51.146;6.576;2022-12-05T16:11:59;0.50;99.90
42907;DHT22;28552;51.146;6.576;2022-12-05T16:15:03;0.50;99.90
42907;DHT22;28552;51.146;6.576;2022-12-05T16:18:05;0.50;99.90
42907;DHT22;28552;51.146;6.576;2022-12-05T16:24:42;0.50;99.90
42907;DHT22;28552;51.146;6.576;2022-12-05T16:27:57;0.50;99.90
42907;DHT22;28552;51.146;6.576;2022-12-05T16:31:00;0.50;99.90
42907;DHT22;28552;51.146;6.576;2022-12-05T16:34:06;0.50;99.90
42907;DHT22;28552;51.146;6.576;2022-12-05T16:37:17;0.50;99.90
42907;DHT22;28552;51.146;6.576;2022-12-05T16:40:21;0.50;99.90
42907;DHT22;28552;51.146;6.576;2022-12-05T16:46:41;0.50;99.90
42907;DHT22;28552;51.146;6.576;2022-12-05T16:49:42;0.50;99.90
42907;DHT22;28552;51.146;6.576;2022-12-05T16:52:43;0.50;99.90
42907;DHT22;28552;51.146;6.576;2022-12-05T16:55:44;0.50;99.90
42907;DHT22;28552;51.146;6.576;2022-12-05T16:58:45;0.50;99.90
42907;DHT22;28552;51.146;6.576;2022-12-05T17:01:46;0.50;99.90
42907;DHT22;28552;51.146;6.576;2022-12-05T17:04:46;0.50;99.90
42907;DHT22;28552;51.146;6.576;2022-12-05T17:07:47;0.50;99.90
42907;DHT22;28552;51.146;6.576;2022-12-05T17:10:48;0.50;99.90
42907;DHT22;28552;51.146;6.576;2022-12-05T17:13:49;0.50;99.90
42907;DHT22;28552;51.146;6.576;2022-12-05T17:16:49;0.60;99.90
42907;DHT22;28552;51.146;6.576;2022-12-05T17:19:50;0.60;99.90
42907;DHT22;28552;51.146;6.576;2022-12-05T17:22:50;0.60;99.90
42907;DHT22;28552;51.146;6.576;2022-12-05T17:25:53;0.60;99.90
42907;DHT22;28552;51.146;6.576;2022-12-05T17:28:55;0.60;99.90
42907;DHT22;28552;51.146;6.576;2022-12-05T17:31:55;0.60;99.90
42907;DHT22;28552;51.146;6.576;2022-12-05T17:34:56;0.60;99.90
42907;DHT22;28552;51.146;6.576;2022-12-05T17:37:56;0.60;99.90
42907;DHT22;28552;51.146;6.576;2022-12-05T17:40:57;0.60;99.90
42907;DHT22;28552;51.146;6.576;2022-12-05T17:43:57;0.60;99.90
42907;DHT22;28552;51.146;6.576;2022-12-05T17:46:58;0.60;99.90
42907;DHT22;28552;51.146;6.576;2022-12-05T17:49:58;0.60;99.90
42907;DHT22;28552;51.146;6.576;2022-12-05T17:52:59;0.60;99.90
42907;DHT22;28552;51.146;6.576;2022-12-05T17:56:00;0.60;99.90
42907;DHT22;28552;51.146;6.576;2022-12-05T17:59:00;0.60;99.90
42907;DHT22;28552;51.146;6.576;2022-12-05T18:02:01;0.60;99.90
42907;DHT22;28552;51.146;6.576;2022-12-05T18:05:02;0.60;99.90
42907;DHT22;28552;51.146;6.576;2022-12-05T18:08:02;0.60;99.90
42907;DHT22;28552;51.146;6.576;2022-12-05T18:11:03;0.60;99.90
42907;DHT22;28552;51.146;6.576;2022-12-05T18:14:04;0.60;99.90
42907;DHT22;28552;51.146;6.576;2022-12-05T18:17:04;0.60;99.90
42907;DHT22;28552;51.146;6.576;2022-12-05T18:20:07;0.70;99.90
42907;DHT22;28552;51.146;6.576;2022-12-05T18:23:09;0.60;99.90
42907;DHT22;28552;51.146;6.576;2022-12-05T18:26:10;0.60;99.90
42907;DHT22;28552;51.146;6.576;2022-12-05T18:29:10;0.60;99.90
42907;DHT22;28552;51.146;6.576;2022-12-05T18:32:11;0.70;99.90
42907;DHT22;28552;51.146;6.576;2022-12-05T18:35:11;0.60;99.90
42907;DHT22;28552;51.146;6.576;2022-12-05T18:38:12;0.60;99.90
42907;DHT22;28552;51.146;6.576;2022-12-05T18:41:12;0.70;99.90
42907;DHT22;28552;51.146;6.576;2022-12-05T18:44:13;0.70;99.90
42907;DHT22;28552;51.146;6.576;2022-12-05T18:47:14;0.70;99.90
42907;DHT22;28552;51.146;6.576;2022-12-05T18:50:15;0.70;99.90
42907;DHT22;28552;51.146;6.576;2022-12-05T18:53:16;0.70;99.90
42907;DHT22;28552;51.146;6.576;2022-12-05T18:56:18;0.70;99.90
42907;DHT22;28552;51.146;6.576;2022-12-05T18:59:20;0.70;99.90
42907;DHT22;28552;51.146;6.576;2022-12-05T19:02:21;0.70;99.90
42907;DHT22;28552;51.146;6.576;2022-12-05T19:05:23;0.70;99.90
42907;DHT22;28552;51.146;6.576;2022-12-05T19:08:24;0.70;99.90
42907;DHT22;28552;51.146;6.576;2022-12-05T19:11:25;0.70;99.90
42907;DHT22;28552;51.146;6.576;2022-12-05T19:14:27;0.70;99.90
42907;DHT22;28552;51.146;6.576;2022-12-05T19:17:29;0.70;99.90
42907;DHT22;28552;51.146;6.576;2022-12-05T19:20:30;0.70;99.90
42907;DHT22;28552;51.146;6.576;2022-12-05T19:23:32;0.70;99.90
42907;DHT22;28552;51.146;6.576;2022-12-05T19:26:33;0.70;99.90
42907;DHT22;28552;51.146;6.576;2022-12-05T19:29:35;0.70;99.90
42907;DHT22;28552;51.146;6.576;2022-12-05T19:32:36;0.70;99.90
42907;DHT22;28552;51.146;6.576;2022-12-05T19:35:36;0.80;99.90
42907;DHT22;28552;51.146;6.576;2022-12-05T19:38:39;0.70;99.90
42907;DHT22;28552;51.146;6.576;2022-12-05T19:41:40;0.70;99.90
42907;DHT22;28552;51.146;6.576;2022-12-05T19:44:40;0.70;99.90
42907;DHT22;28552;51.146;6.576;2022-12-05T19:47:41;0.80;99.90
42907;DHT22;28552;51.146;6.576;2022-12-05T19:50:41;0.70;99.90
42907;DHT22;28552;51.146;6.576;2022-12-05T19:53:42;0.70;99.90
42907;DHT22;28552;51.146;6.576;2022-12-05T19:56:43;0.70;99.90
42907;DHT22;28552;51.146;6.576;2022-12-05T19:59:44;0.70;99.90
42907;DHT22;28552;51.146;6.576;2022-12-05T20:02:45;0.70;99.90
42907;DHT22;28552;51.146;6.576;2022-12-05T20:05:55;0.70;99.90
42907;DHT22;28552;51.146;6.576;2022-12-05T20:08:58;0.80;99.90
42907;DHT22;28552;51.146;6.576;2022-12-05T20:11:59;0.80;99.90
42907;DHT22;28552;51.146;6.576;2022-12-05T20:15:03;0.80;99.90
42907;DHT22;28552;51.146;6.576;2022-12-05T20:18:04;0.80;99.90
42907;DHT22;28552;51.146;6.576;2022-12-05T20:21:07;0.80;99.90
42907;DHT22;28552;51.146;6.576;2022-12-05T20:24:08;0.80;99.90
42907;DHT22;28552;51.146;6.576;2022-12-05T20:27:09;0.70;99.90
42907;DHT22;28552;51.146;6.576;2022-12-05T20:30:10;0.70;99.90
42907;DHT22;28552;51.146;6.576;2022-12-05T20:33:10;0.70;99.90
42907;DHT22;28552;51.146;6.576;2022-12-05T20:36:14;0.80;99.90
42907;DHT22;28552;51.146;6.576;2022-12-05T20:39:16;0.80;99.90
42907;DHT22;28552;51.146;6.576;2022-12-05T20:42:16;0.80;99.90
42907;DHT22;28552;51.146;6.576;2022-12-05T20:45:17;0.80;99.90
42907;DHT22;28552;51.146;6.576;2022-12-05T20:48:17;0.80;99.90
42907;DHT22;28552;51.146;6.576;2022-12-05T20:51:22;0.80;99.90
42907;DHT22;28552;51.146;6.576;2022-12-05T20:54:23;0.80;99.90
42907;DHT22;28552;51.146;6.576;2022-12-05T20:57:23;0.80;99.90
42907;DHT22;28552;51.146;6.576;2022-12-05T21:00:25;0.80;99.90
42907;DHT22;28552;51.146;6.576;2022-12-05T21:03:26;0.90;99.90
42907;DHT22;28552;51.146;6.576;2022-12-05T21:06:29;0.80;99.90
42907;DHT22;28552;51.146;6.576;2022-12-05T21:09:30;0.90;99.90
42907;DHT22;28552;51.146;6.576;2022-12-05T21:12:31;0.90;99.90
42907;DHT22;28552;51.146;6.576;2022-12-05T21:15:31;0.90;99.90
42907;DHT22;28552;51.146;6.576;2022-12-05T21:18:35;0.90;99.90
42907;DHT22;28552;51.146;6.576;2022-12-05T21:21:36;0.90;99.90